createdAt,value
2023-04-02T00:01:01.480Z,28.55
2023-04-02T00:03:42.557Z,36.10
2023-04-02T00:06:33.149Z,32.67
2023-04-02T00:09:04.802Z,31.65
2023-04-02T00:11:37.541Z,32.20
2023-04-02T00:14:13.693Z,33.22
2023-04-02T00:16:40.981Z,28.37
2023-04-02T00:19:18.479Z,32.40
2023-04-02T00:21:47.540Z,33.58
2023-04-02T00:24:17.712Z,35.10
2023-04-02T00:26:50.547Z,35.03
2023-04-02T00:29:19.283Z,32.80
2023-04-02T00:31:49.294Z,33.22
2023-04-02T00:34:22.105Z,33.90
2023-04-02T00:36:51.218Z,35.30
2023-04-02T00:39:24.976Z,35.42
2023-04-02T00:41:58.856Z,32.07
2023-04-02T00:44:30.525Z,32.70
2023-04-02T00:46:57.989Z,35.47
2023-04-02T00:49:39.453Z,31.67
2023-04-02T00:52:18.849Z,32.50
2023-04-02T00:54:51.141Z,36.27
2023-04-02T00:57:25.752Z,32.13
2023-04-02T01:00:05.232Z,34.85
2023-04-02T01:02:34.375Z,39.80
2023-04-02T01:05:23.657Z,32.45
2023-04-02T01:08:14.920Z,33.40
2023-04-02T01:11:23.790Z,33.88
2023-04-02T01:13:53.532Z,32.83
2023-04-02T01:16:33.291Z,32.33
2023-04-02T01:19:28.691Z,30.40
2023-04-02T01:22:35.260Z,33.17
2023-04-02T01:25:04.715Z,31.65
2023-04-02T01:27:49.608Z,33.95
2023-04-02T01:30:18.436Z,30.13
2023-04-02T01:32:45.808Z,32.63
2023-04-02T01:35:13.020Z,36.30
2023-04-02T01:37:50.180Z,37.65
2023-04-02T01:40:44.037Z,36.08
2023-04-02T01:43:33.107Z,32.35
2023-04-02T01:46:06.811Z,32.47
2023-04-02T01:48:33.881Z,35.43
2023-04-02T01:51:05.558Z,35.53
2023-04-02T01:53:33.402Z,33.60
2023-04-02T01:56:04.927Z,29.13
2023-04-02T01:58:33.897Z,37.03
2023-04-02T02:01:08.493Z,30.53
2023-04-02T02:03:38.793Z,31.73
2023-04-02T02:06:06.847Z,33.67
2023-04-02T02:08:58.374Z,29.63
2023-04-02T02:11:28.567Z,35.55
2023-04-02T02:14:00.987Z,33.00
2023-04-02T02:16:31.964Z,33.13
2023-04-02T02:19:04.559Z,36.88
2023-04-02T02:21:42.431Z,33.50
2023-04-02T02:24:31.972Z,30.05
2023-04-02T02:27:37.956Z,32.57
2023-04-02T02:30:25.408Z,28.48
2023-04-02T02:33:21.845Z,29.33
2023-04-02T02:35:56.154Z,34.28
2023-04-02T02:38:34.677Z,33.20
2023-04-02T02:41:17.059Z,31.33
2023-04-02T02:43:57.617Z,29.65
2023-04-02T02:46:27.723Z,29.58
2023-04-02T02:48:57.900Z,28.45
2023-04-02T02:51:50.795Z,31.58
2023-04-02T02:54:27.212Z,28.57
2023-04-02T02:57:00.177Z,29.98
2023-04-02T02:59:30.905Z,27.35
2023-04-02T03:02:00.523Z,26.92
2023-04-02T03:04:30.768Z,31.40
2023-04-02T03:06:59.228Z,26.83
2023-04-02T03:09:39.532Z,31.02
2023-04-02T03:12:22.449Z,27.23
2023-04-02T03:15:01.249Z,26.83
2023-04-02T03:17:37.226Z,25.25
2023-04-02T03:20:17.918Z,30.63
2023-04-02T03:22:55.356Z,27.95
2023-04-02T03:25:23.765Z,26.33
2023-04-02T03:27:56.848Z,26.00
2023-04-02T03:30:44.274Z,26.23
2023-04-02T03:33:24.166Z,30.17
2023-04-02T03:35:55.200Z,22.38
2023-04-02T03:38:35.115Z,22.70
2023-04-02T03:41:18.081Z,20.98
2023-04-02T03:43:54.903Z,22.50
2023-04-02T03:46:33.839Z,29.10
2023-04-02T03:49:07.728Z,24.23
2023-04-02T03:51:57.712Z,23.77
2023-04-02T03:54:25.089Z,19.75
2023-04-02T03:56:53.458Z,21.50
2023-04-02T03:59:42.916Z,23.67
2023-04-02T04:02:26.825Z,21.98
2023-04-02T04:04:56.324Z,22.17
2023-04-02T04:07:34.502Z,21.15
2023-04-02T04:10:03.301Z,16.15
2023-04-02T04:12:37.130Z,21.53
2023-04-02T04:15:15.471Z,20.77
2023-04-02T04:18:10.634Z,21.63
2023-04-02T04:20:57.122Z,21.65
2023-04-02T04:23:36.872Z,21.40
2023-04-02T04:26:12.777Z,24.07
2023-04-02T04:28:48.512Z,17.52
2023-04-02T04:31:27.304Z,21.80
2023-04-02T04:34:04.022Z,23.38
2023-04-02T04:36:41.601Z,22.17
2023-04-02T04:39:18.163Z,22.47
2023-04-02T04:41:48.894Z,22.98
2023-04-02T04:44:24.660Z,20.65
2023-04-02T04:47:07.495Z,20.30
2023-04-02T04:50:08.869Z,22.35
2023-04-02T04:52:40.569Z,19.70
2023-04-02T04:55:28.738Z,20.27
2023-04-02T04:58:04.146Z,19.23
2023-04-02T05:00:57.755Z,21.48
2023-04-02T05:03:43.604Z,21.50
2023-04-02T05:06:33.959Z,21.93
2023-04-02T05:09:15.775Z,21.05
2023-04-02T05:11:53.064Z,20.00
2023-04-02T05:14:32.109Z,20.63
2023-04-02T05:17:38.250Z,20.40
2023-04-02T05:20:20.664Z,19.40
2023-04-02T05:23:24.061Z,22.02
2023-04-02T05:26:00.589Z,18.88
2023-04-02T05:28:38.971Z,18.70
2023-04-02T05:31:12.550Z,23.00
2023-04-02T05:33:45.619Z,24.77
2023-04-02T05:36:24.494Z,22.55
2023-04-02T05:38:57.602Z,21.65
2023-04-02T05:42:01.787Z,19.88
2023-04-02T05:44:45.840Z,23.95
2023-04-02T05:47:24.392Z,27.07
2023-04-02T05:50:08.741Z,22.83
2023-04-02T05:52:49.524Z,20.45
2023-04-02T05:55:17.088Z,27.52
2023-04-02T05:58:21.383Z,20.05
2023-04-02T06:01:25.344Z,24.50
2023-04-02T06:04:23.353Z,25.95
2023-04-02T06:06:59.597Z,27.27
2023-04-02T06:09:27.836Z,24.05
2023-04-02T06:12:33.873Z,26.27
2023-04-02T06:15:01.376Z,25.97
2023-04-02T06:17:43.622Z,22.58
2023-04-02T06:20:16.682Z,27.80
2023-04-02T06:22:59.942Z,21.95
2023-04-02T06:25:32.548Z,21.58
2023-04-02T06:28:04.607Z,20.57
2023-04-02T06:30:35.803Z,25.05
2023-04-02T06:33:05.274Z,23.45
2023-04-02T06:35:39.044Z,20.60
2023-04-02T06:38:25.609Z,19.75
2023-04-02T06:40:58.947Z,19.20
2023-04-02T06:43:45.539Z,18.95
2023-04-02T06:46:38.886Z,22.55
2023-04-02T06:49:21.715Z,21.40
2023-04-02T06:51:54.537Z,22.02
2023-04-02T06:54:22.010Z,22.27
2023-04-02T06:56:58.865Z,23.92
2023-04-02T06:59:46.247Z,22.35
2023-04-02T07:02:20.641Z,21.38
2023-04-02T07:04:48.218Z,19.73
2023-04-02T07:07:16.703Z,21.57
2023-04-02T07:09:46.215Z,22.58
2023-04-02T07:12:14.281Z,19.92
2023-04-02T07:14:43.049Z,21.08
2023-04-02T07:17:17.948Z,22.05
2023-04-02T07:19:49.255Z,23.03
2023-04-02T07:22:19.391Z,25.83
2023-04-02T07:24:49.838Z,21.85
2023-04-02T07:27:16.917Z,22.75
2023-04-02T07:29:44.088Z,21.17
2023-04-02T07:32:12.419Z,20.57
2023-04-02T07:34:42.458Z,21.45
2023-04-02T07:37:14.181Z,24.80
2023-04-02T07:39:41.883Z,20.70
2023-04-02T07:42:08.969Z,19.83
2023-04-02T07:44:35.975Z,20.10
2023-04-02T07:47:03.125Z,18.98
2023-04-02T07:49:30.164Z,21.70
2023-04-02T07:51:57.229Z,22.42
2023-04-02T07:54:24.341Z,18.30
2023-04-02T07:56:51.431Z,22.90
2023-04-02T07:59:18.441Z,22.48
2023-04-02T08:01:45.932Z,20.38
2023-04-02T08:04:21.547Z,21.02
2023-04-02T08:06:49.678Z,20.50
2023-04-02T08:09:17.641Z,28.67
2023-04-02T08:11:46.665Z,25.50
2023-04-02T08:14:14.355Z,20.33
2023-04-02T08:16:52.571Z,24.80
2023-04-02T08:19:20.033Z,22.60
2023-04-02T08:21:50.659Z,25.90
2023-04-02T08:24:21.584Z,23.38
2023-04-02T08:26:50.062Z,25.30
2023-04-02T08:29:17.222Z,23.10
2023-04-02T08:31:44.211Z,24.08
2023-04-02T08:34:11.269Z,20.77
2023-04-02T08:36:41.740Z,22.38
2023-04-02T08:39:13.908Z,21.10
2023-04-02T08:41:48.483Z,23.73
2023-04-02T08:44:39.982Z,22.17
2023-04-02T08:47:09.958Z,21.50
2023-04-02T08:49:57.948Z,21.10
2023-04-02T08:52:28.874Z,21.17
2023-04-02T08:54:58.025Z,20.38
2023-04-02T08:57:43.945Z,23.23
2023-04-02T09:00:20.498Z,24.60
2023-04-02T09:03:00.933Z,24.63
2023-04-02T09:05:31.974Z,24.33
2023-04-02T09:08:02.964Z,24.10
2023-04-02T09:10:42.733Z,29.10
2023-04-02T09:13:18.638Z,27.10
2023-04-02T09:15:45.869Z,25.65
2023-04-02T09:18:18.192Z,24.02
2023-04-02T09:20:45.716Z,29.27
2023-04-02T09:23:18.792Z,24.38
2023-04-02T09:26:02.901Z,26.93
2023-04-02T09:28:31.841Z,23.35
2023-04-02T09:31:11.685Z,24.83
2023-04-02T09:33:48.466Z,24.95
2023-04-02T09:36:36.013Z,25.42
2023-04-02T09:39:17.777Z,21.47
2023-04-02T09:41:50.265Z,24.08
2023-04-02T09:44:32.005Z,23.27
2023-04-02T09:47:05.493Z,24.50
2023-04-02T09:49:39.990Z,23.60
2023-04-02T09:52:30.982Z,22.87
2023-04-02T09:55:16.419Z,23.88
2023-04-02T09:57:46.336Z,25.92
2023-04-02T10:00:32.121Z,21.88
2023-04-02T10:03:19.713Z,22.63
2023-04-02T10:05:47.664Z,25.97
2023-04-02T10:08:28.235Z,20.98
2023-04-02T10:11:02.017Z,22.48
2023-04-02T10:13:31.326Z,23.35
2023-04-02T10:16:22.684Z,23.77
2023-04-02T10:19:19.035Z,20.60
2023-04-02T10:21:49.268Z,21.05
2023-04-02T10:24:17.619Z,22.65
2023-04-02T10:26:56.595Z,20.13
2023-04-02T10:30:09.599Z,24.10
2023-04-02T10:32:57.925Z,18.57
2023-04-02T10:35:38.825Z,19.23
2023-04-02T10:38:24.452Z,21.70
2023-04-02T10:40:56.459Z,19.67
2023-04-02T10:43:47.544Z,22.42
2023-04-02T10:46:25.485Z,19.80
2023-04-02T10:49:18.288Z,23.75
2023-04-02T10:51:47.773Z,22.65
2023-04-02T10:54:42.668Z,19.85
2023-04-02T10:57:35.017Z,19.38
2023-04-02T11:00:09.633Z,26.87
2023-04-02T11:02:36.717Z,22.92
2023-04-02T11:05:14.050Z,22.67
2023-04-02T11:07:52.639Z,23.38
2023-04-02T11:10:21.238Z,24.25
2023-04-02T11:12:59.268Z,22.20
2023-04-02T11:15:27.443Z,23.10
2023-04-02T11:17:54.896Z,22.02
2023-04-02T11:20:44.163Z,25.13
2023-04-02T11:23:13.698Z,22.75
2023-04-02T11:25:42.592Z,24.93
2023-04-02T11:28:29.428Z,26.33
2023-04-02T11:30:57.866Z,22.98
2023-04-02T11:33:38.113Z,28.60
2023-04-02T11:36:43.957Z,24.20
2023-04-02T11:39:17.419Z,24.80
2023-04-02T11:42:06.842Z,25.50
2023-04-02T11:44:34.937Z,22.60
2023-04-02T11:47:24.634Z,19.83
2023-04-02T11:49:54.901Z,21.95
2023-04-02T11:52:28.917Z,21.67
2023-04-02T11:54:58.880Z,20.73
2023-04-02T11:57:51.879Z,20.67
2023-04-02T12:00:26.530Z,23.70
2023-04-02T12:03:00.157Z,22.48
2023-04-02T12:05:43.291Z,23.60
2023-04-02T12:08:15.238Z,21.52
2023-04-02T12:11:02.493Z,26.20
2023-04-02T12:13:41.768Z,25.42
2023-04-02T12:16:11.230Z,22.75
2023-04-02T12:18:47.254Z,24.00
2023-04-02T12:21:26.904Z,21.20
2023-04-02T12:23:57.948Z,19.13
2023-04-02T12:26:27.998Z,22.15
2023-04-02T12:28:56.394Z,22.15
2023-04-02T12:31:25.329Z,23.30
2023-04-02T12:33:53.235Z,20.65
2023-04-02T12:36:23.739Z,30.55
2023-04-02T12:38:52.466Z,21.02
2023-04-02T12:41:24.455Z,20.10
2023-04-02T12:44:01.851Z,22.30
2023-04-02T12:46:30.958Z,25.17
2023-04-02T12:49:08.542Z,21.73
2023-04-02T12:51:36.650Z,24.40
2023-04-02T12:54:04.448Z,22.25
2023-04-02T12:56:31.548Z,24.97
2023-04-02T12:59:00.713Z,23.05
2023-04-02T13:01:31.713Z,22.98
2023-04-02T13:04:15.200Z,26.50
2023-04-02T13:06:50.120Z,18.90
2023-04-02T13:09:28.823Z,20.97
2023-04-02T13:11:56.149Z,23.73
2023-04-02T13:14:24.723Z,21.00
2023-04-02T13:16:51.898Z,17.45
2023-04-02T13:19:28.508Z,24.63
2023-04-02T13:21:57.872Z,20.60
2023-04-02T13:24:27.568Z,23.55
2023-04-02T13:27:01.112Z,26.48
2023-04-02T13:29:33.268Z,17.73
2023-04-02T13:32:05.997Z,21.75
2023-04-02T13:34:32.938Z,18.03
2023-04-02T13:37:00.032Z,19.60
2023-04-02T13:39:27.347Z,20.08
2023-04-02T13:42:12.967Z,17.17
2023-04-02T13:44:40.300Z,18.60
2023-04-02T13:47:07.536Z,23.07
2023-04-02T13:49:34.582Z,18.10
2023-04-02T13:52:04.437Z,19.38
2023-04-02T13:55:04.463Z,20.92
2023-04-02T13:57:31.625Z,21.75
2023-04-02T13:59:58.670Z,20.00
2023-04-02T14:02:26.118Z,20.73
2023-04-02T14:05:04.147Z,23.75
2023-04-02T14:07:56.011Z,19.70
2023-04-02T14:10:32.318Z,25.58
2023-04-02T14:13:17.812Z,25.87
2023-04-02T14:16:06.043Z,19.20
2023-04-02T14:19:12.814Z,16.98
2023-04-02T14:21:58.258Z,17.75
2023-04-02T14:24:37.388Z,18.80
2023-04-02T14:27:11.218Z,17.87
2023-04-02T14:29:58.351Z,14.45
2023-04-02T14:32:44.206Z,19.00
2023-04-02T14:35:11.710Z,15.13
2023-04-02T14:37:41.619Z,15.00
2023-04-02T14:40:32.154Z,15.27
2023-04-02T14:43:08.461Z,21.52
2023-04-02T14:45:41.482Z,21.52
2023-04-02T14:48:47.869Z,17.23
2023-04-02T14:51:17.578Z,31.73
2023-04-02T14:54:14.862Z,21.53
2023-04-02T14:56:52.336Z,19.20
2023-04-02T14:59:34.563Z,22.85
2023-04-02T15:02:28.068Z,23.15
2023-04-02T15:05:10.034Z,19.73
2023-04-02T15:07:41.953Z,30.33
2023-04-02T15:10:24.870Z,25.17
2023-04-02T15:12:54.114Z,35.88
2023-04-02T15:15:46.933Z,23.85
2023-04-02T15:18:16.821Z,20.67
2023-04-02T15:21:01.360Z,25.30
2023-04-02T15:23:35.207Z,23.40
2023-04-02T15:26:15.917Z,26.02
2023-04-02T15:29:15.841Z,25.08
2023-04-02T15:31:52.032Z,22.13
2023-04-02T15:34:42.365Z,22.53
2023-04-02T15:37:31.016Z,20.80
2023-04-02T15:40:24.116Z,22.02
2023-04-02T15:43:05.205Z,25.90
2023-04-02T15:46:14.314Z,18.70
2023-04-02T15:48:53.443Z,25.87
2023-04-02T15:51:45.082Z,20.88
2023-04-02T15:54:33.390Z,24.88
2023-04-02T15:57:22.369Z,22.10
2023-04-02T15:59:58.022Z,20.00
2023-04-02T16:02:55.664Z,20.63
2023-04-02T16:05:34.786Z,25.58
2023-04-02T16:08:17.064Z,22.77
2023-04-02T16:10:45.780Z,19.88
2023-04-02T16:13:36.590Z,19.95
2023-04-02T16:16:08.701Z,19.73
2023-04-02T16:18:44.854Z,17.80
2023-04-02T16:21:20.857Z,19.20
2023-04-02T16:23:48.581Z,18.27
2023-04-02T16:26:43.429Z,18.58
2023-04-02T16:29:55.302Z,33.97
2023-04-02T16:32:41.079Z,18.42
2023-04-02T16:35:41.664Z,16.48
2023-04-02T16:38:37.870Z,19.63
2023-04-02T16:41:35.699Z,21.70
2023-04-02T16:44:35.970Z,19.97
2023-04-02T16:47:24.723Z,21.02
2023-04-02T16:49:54.824Z,21.20
2023-04-02T16:52:34.108Z,17.25
2023-04-02T16:55:34.064Z,16.10
2023-04-02T16:58:22.420Z,17.27
2023-04-02T17:01:18.556Z,16.83
2023-04-02T17:04:02.220Z,20.10
2023-04-02T17:06:39.820Z,16.58
2023-04-02T17:09:24.061Z,13.68
2023-04-02T17:12:04.621Z,14.30
2023-04-02T17:14:39.178Z,17.90
2023-04-02T17:17:08.942Z,15.57
2023-04-02T17:19:36.426Z,14.60
2023-04-02T17:22:05.739Z,17.52
2023-04-02T17:24:44.596Z,15.97
2023-04-02T17:27:35.638Z,15.88
2023-04-02T17:30:13.349Z,15.07
2023-04-02T17:32:40.570Z,13.80
2023-04-02T17:35:40.415Z,15.70
2023-04-02T17:38:13.366Z,17.63
2023-04-02T17:41:08.173Z,15.50
2023-04-02T17:43:53.859Z,15.57
2023-04-02T17:46:37.800Z,17.17
2023-04-02T17:49:34.173Z,17.35
2023-04-02T17:52:05.827Z,19.70
2023-04-02T17:54:54.700Z,26.95
2023-04-02T17:57:30.784Z,20.10
2023-04-02T18:00:08.789Z,16.02
2023-04-02T18:03:18.751Z,15.85
2023-04-02T18:05:54.558Z,12.87
2023-04-02T18:08:49.158Z,16.60
2023-04-02T18:11:47.067Z,15.52
2023-04-02T18:14:32.929Z,17.60
2023-04-02T18:16:59.925Z,14.93
2023-04-02T18:19:44.778Z,15.73
2023-04-02T18:22:23.191Z,17.77
2023-04-02T18:25:27.784Z,11.93
2023-04-02T18:28:05.847Z,11.05
2023-04-02T18:30:32.962Z,12.93
2023-04-02T18:33:28.642Z,13.73
2023-04-02T18:36:26.495Z,10.98
2023-04-02T18:39:11.031Z,13.38
2023-04-02T18:41:47.792Z,13.48
2023-04-02T18:44:30.334Z,11.88
2023-04-02T18:47:40.707Z,15.50
2023-04-02T18:50:19.935Z,14.73
2023-04-02T18:52:48.738Z,14.52
2023-04-02T18:55:20.562Z,12.95
2023-04-02T18:57:52.755Z,12.40
2023-04-02T19:00:26.359Z,15.43
2023-04-02T19:03:03.078Z,14.30
2023-04-02T19:05:36.409Z,16.13
2023-04-02T19:08:29.087Z,13.38
2023-04-02T19:11:04.390Z,14.98
2023-04-02T19:13:31.805Z,17.67
2023-04-02T19:16:05.957Z,13.13
2023-04-02T19:18:41.634Z,15.75
2023-04-02T19:21:26.888Z,15.20
2023-04-02T19:24:20.124Z,17.33
2023-04-02T19:26:57.277Z,14.97
2023-04-02T19:29:33.130Z,15.50
2023-04-02T19:32:25.515Z,14.88
2023-04-02T19:35:02.887Z,13.52
2023-04-02T19:37:33.094Z,13.43
2023-04-02T19:40:08.667Z,14.37
2023-04-02T19:42:45.032Z,14.25
2023-04-02T19:45:29.022Z,13.43
2023-04-02T19:47:58.866Z,14.35
2023-04-02T19:50:26.096Z,14.65
2023-04-02T19:52:53.076Z,12.77
2023-04-02T19:55:20.433Z,24.90
2023-04-02T19:57:47.604Z,12.98
2023-04-02T20:00:15.951Z,19.55
2023-04-02T20:02:43.024Z,13.25
2023-04-02T20:05:10.213Z,14.40
2023-04-02T20:07:37.341Z,14.98
2023-04-02T20:10:04.689Z,15.52
2023-04-02T20:12:31.678Z,13.57
2023-04-02T20:14:58.662Z,14.48
2023-04-02T20:17:25.783Z,15.33
2023-04-02T20:19:52.886Z,12.15
2023-04-02T20:22:19.929Z,12.82
2023-04-02T20:24:47.102Z,14.05
2023-04-02T20:27:16.027Z,19.48
2023-04-02T20:29:43.136Z,16.40
2023-04-02T20:32:11.075Z,16.02
2023-04-02T20:34:38.071Z,14.30
2023-04-02T20:37:05.239Z,15.05
2023-04-02T20:39:32.311Z,14.57
2023-04-02T20:42:02.985Z,19.10
2023-04-02T20:44:30.072Z,14.85
2023-04-02T20:46:57.613Z,15.00
2023-04-02T20:49:25.739Z,14.43
2023-04-02T20:51:52.889Z,19.35
2023-04-02T20:54:19.921Z,12.70
2023-04-02T20:56:47.483Z,13.43
2023-04-02T20:59:14.578Z,14.98
2023-04-02T21:01:41.741Z,14.10
2023-04-02T21:04:08.995Z,14.70
2023-04-02T21:06:38.626Z,12.80
2023-04-02T21:09:09.163Z,10.82
2023-04-02T21:11:36.973Z,11.85
2023-04-02T21:14:04.563Z,14.25
2023-04-02T21:16:32.288Z,13.32
2023-04-02T21:19:07.771Z,14.07
2023-04-02T21:21:36.361Z,12.77
2023-04-02T21:24:05.767Z,15.88
2023-04-02T21:26:35.396Z,10.25
2023-04-02T21:29:03.001Z,10.68
2023-04-02T21:31:34.023Z,11.07
2023-04-02T21:34:01.367Z,11.60
2023-04-02T21:36:31.756Z,10.80
2023-04-02T21:39:08.090Z,13.20
2023-04-02T21:41:37.614Z,11.65
2023-04-02T21:44:06.974Z,12.37
2023-04-02T21:46:37.176Z,11.45
2023-04-02T21:49:05.752Z,11.27
2023-04-02T21:51:33.851Z,12.45
2023-04-02T21:54:01.737Z,12.45
2023-04-02T21:56:40.594Z,12.83
2023-04-02T21:59:09.736Z,12.15
2023-04-02T22:01:40.132Z,12.23
2023-04-02T22:04:08.859Z,15.98
2023-04-02T22:06:39.255Z,13.82
2023-04-02T22:09:12.283Z,12.13
2023-04-02T22:11:45.928Z,14.65
2023-04-02T22:14:13.366Z,11.40
2023-04-02T22:16:41.234Z,10.73
2023-04-02T22:19:10.812Z,13.00
2023-04-02T22:21:39.209Z,10.30
2023-04-02T22:24:09.381Z,12.15
2023-04-02T22:26:37.031Z,12.63
2023-04-02T22:29:05.181Z,18.55
2023-04-02T22:31:35.124Z,12.57
2023-04-02T22:34:04.709Z,13.17
2023-04-02T22:36:32.320Z,10.95
2023-04-02T22:39:01.303Z,15.65
2023-04-02T22:41:29.778Z,12.75
2023-04-02T22:43:57.755Z,13.23
2023-04-02T22:46:26.812Z,15.40
2023-04-02T22:48:54.871Z,12.40
2023-04-02T22:51:23.301Z,12.45
2023-04-02T22:53:50.670Z,11.57
2023-04-02T22:56:21.743Z,13.43
2023-04-02T22:58:49.362Z,14.13
2023-04-02T23:01:25.936Z,14.00
2023-04-02T23:03:54.740Z,13.73
2023-04-02T23:06:22.264Z,13.93
2023-04-02T23:08:49.352Z,11.52
2023-04-02T23:11:25.029Z,14.50
2023-04-02T23:13:54.903Z,16.23
2023-04-02T23:16:23.180Z,12.75
2023-04-02T23:18:51.001Z,12.15
2023-04-02T23:21:19.140Z,12.20
2023-04-02T23:23:47.194Z,10.70
2023-04-02T23:26:24.543Z,16.42
2023-04-02T23:28:51.782Z,12.60
2023-04-02T23:31:21.631Z,13.48
2023-04-02T23:33:49.611Z,15.27
2023-04-02T23:36:25.340Z,12.67
2023-04-02T23:38:57.049Z,22.58
2023-04-02T23:41:27.017Z,19.48
2023-04-02T23:43:56.018Z,17.50
2023-04-02T23:46:23.667Z,20.85
2023-04-02T23:48:52.174Z,18.33
2023-04-02T23:51:19.469Z,20.92
2023-04-02T23:53:47.942Z,20.73
2023-04-02T23:56:15.007Z,28.15
2023-04-02T23:58:42.032Z,31.85
